Аэропорт: Храброво. Калининград

ICAO: UMKK

METAR:
2018/11/21 18:30
UMKK 211830Z 09005MPS 9999 OVC013 M01/M04 Q1030 R06/CLRD60 NOSIG RMK QFE771/1029
METAR:
2018/11/21 18:24
TAF UMKK 211701Z 2118/2218 10005MPS 9999 BKN011 
      BECMG 2204/2206 BKN007 
      TEMPO 2206/2215 3100 -SHSNRA BKN005 BKN015CB PROB40 
      TEMPO 2206/2215 -FZRA 
      BECMG 2207/2209 13004MPS